Time,TemperatureF,DewpointF,PressureIn,WindDirection,WindDirectionDegrees,WindSpeedMPH,WindSpeedGustMPH,Humidity,HourlyPrecipIn,Conditions,Clouds,dailyrainin,SoftwareType,DateUTC
2013-04-07 00:24:00,33.8,9.0,30.29,ENE,71,0.0,-999.0,36,-99.99,,,0.00,weatherlink.com 1.10,2013-04-07 04:24:00,
2013-04-07 00:39:00,33.9,9.0,30.29,East,84,0.0,-999.0,35,-99.99,,,0.00,weatherlink.com 1.10,2013-04-07 04:39:00,
2013-04-07 00:54:00,33.8,8.0,30.29,East,98,0.0,-999.0,34,-99.99,,,0.00,weatherlink.com 1.10,2013-04-07 04:54:00,
2013-04-07 01:09:00,33.3,8.0,30.29,East,98,0.0,-999.0,35,-99.99,,,0.00,weatherlink.com 1.10,2013-04-07 05:09:00,
2013-04-07 01:24:00,33.2,8.0,30.29,East,98,0.0,-999.0,35,-99.99,,,0.00,weatherlink.com 1.10,2013-04-07 05:24:00,
2013-04-07 01:39:00,33.2,9.0,30.28,East,98,1.0,-999.0,36,-99.99,,,0.00,weatherlink.com 1.10,2013-04-07 05:39:00,
2013-04-07 01:54:00,33.0,9.0,30.27,East,90,2.0,-999.0,36,-99.99,,,0.00,weatherlink.com 1.10,2013-04-07 05:54:00,
2013-04-07 04:03:00,32.7,14.0,30.24,North,-999,-999.0,-999.0,46,-99.99,,,0.00,weatherlink.com 1.10,2013-04-07 08:03:00,
2013-04-07 04:40:00,32.0,15.0,30.23,North,-999,-999.0,-999.0,49,-99.99,,,0.00,weatherlink.com 1.10,2013-04-07 08:40:00,
2013-04-07 04:55:00,31.5,14.0,30.23,North,-999,-999.0,-999.0,49,-99.99,,,0.00,weatherlink.com 1.10,2013-04-07 08:55:00,
2013-04-07 05:10:00,31.2,16.0,30.24,North,-999,-999.0,-999.0,53,-99.99,,,0.00,weatherlink.com 1.10,2013-04-07 09:10:00,
2013-04-07 05:25:00,31.9,17.0,30.24,North,-999,-999.0,-999.0,54,-99.99,,,0.00,weatherlink.com 1.10,2013-04-07 09:25:00,
2013-04-07 05:40:00,31.6,16.0,30.24,North,-999,-999.0,-999.0,53,-99.99,,,0.00,weatherlink.com 1.10,2013-04-07 09:40:00,
2013-04-07 05:55:00,31.4,16.0,30.24,North,-999,-999.0,-999.0,53,-99.99,,,0.00,weatherlink.com 1.10,2013-04-07 09:55:00,
2013-04-07 06:10:00,31.1,17.0,30.24,North,-999,-999.0,-999.0,56,-99.99,,,0.00,weatherlink.com 1.10,2013-04-07 10:10:00,
2013-04-07 06:25:00,30.4,16.0,30.25,North,-999,-999.0,-999.0,56,-99.99,,,0.00,weatherlink.com 1.10,2013-04-07 10:25:00,
2013-04-07 06:40:00,30.5,18.0,30.25,ENE,75,0.0,-999.0,59,-99.99,,,0.00,weatherlink.com 1.10,2013-04-07 10:40:00,
2013-04-07 06:55:00,31.2,19.0,30.26,ENE,75,0.0,-999.0,62,-99.99,,,0.00,weatherlink.com 1.10,2013-04-07 10:55:00,
2013-04-07 07:10:00,31.6,21.0,30.27,South,190,1.0,-999.0,66,-99.99,,,0.00,weatherlink.com 1.10,2013-04-07 11:10:00,
2013-04-07 07:25:00,31.8,22.0,30.27,South,189,2.0,-999.0,67,-99.99,,,0.00,weatherlink.com 1.10,2013-04-07 11:25:00,
2013-04-07 07:40:00,32.5,23.0,30.27,South,186,3.0,-999.0,68,-99.99,,,0.00,weatherlink.com 1.10,2013-04-07 11:40:00,
2013-04-07 07:55:00,33.8,23.0,30.28,WSW,237,0.0,-999.0,66,-99.99,,,0.00,weatherlink.com 1.10,2013-04-07 11:55:00,
2013-04-07 08:10:00,34.8,23.0,30.27,South,184,4.0,-999.0,63,-99.99,,,0.00,weatherlink.com 1.10,2013-04-07 12:10:00,
2013-04-07 08:40:00,37.1,24.0,30.26,South,186,2.0,-999.0,59,-99.99,,,0.00,weatherlink.com 1.10,2013-04-07 12:40:00,
2013-04-07 08:55:00,37.8,23.0,30.25,South,177,4.0,-999.0,56,-99.99,,,0.00,weatherlink.com 1.10,2013-04-07 12:55:00,
2013-04-07 09:10:00,38.6,24.0,30.25,South,177,1.0,-999.0,55,-99.99,,,0.00,weatherlink.com 1.10,2013-04-07 13:10:00,
2013-04-07 09:25:00,39.7,24.0,30.24,South,185,5.0,-999.0,53,-99.99,,,0.00,weatherlink.com 1.10,2013-04-07 13:25:00,
2013-04-07 09:40:00,40.5,23.0,30.23,SSW,212,8.0,-999.0,49,-99.99,,,0.00,weatherlink.com 1.10,2013-04-07 13:40:00,
2013-04-07 09:55:00,42.0,22.0,30.23,South,178,6.0,-999.0,45,-99.99,,,0.00,weatherlink.com 1.10,2013-04-07 13:55:00,
2013-04-07 10:10:00,43.3,21.0,30.22,SW,217,9.0,-999.0,42,-99.99,,,0.00,weatherlink.com 1.10,2013-04-07 14:10:00,
2013-04-07 10:25:00,45.0,22.0,30.20,SSE,158,11.0,-999.0,41,-99.99,,,0.00,weatherlink.com 1.10,2013-04-07 14:25:00,
2013-04-07 10:40:00,45.4,22.0,30.20,SSE,155,6.0,-999.0,39,-99.99,,,0.00,weatherlink.com 1.10,2013-04-07 14:40:00,
2013-04-07 10:55:00,46.0,21.0,30.19,South,169,7.0,-999.0,38,-99.99,,,0.00,weatherlink.com 1.10,2013-04-07 14:55:00,
2013-04-07 11:10:00,45.7,21.0,30.18,East,98,4.0,-999.0,38,-99.99,,,0.00,weatherlink.com 1.10,2013-04-07 15:10:00,
2013-04-07 11:25:00,45.4,22.0,30.17,ENE,76,4.0,-999.0,39,-99.99,,,0.00,weatherlink.com 1.10,2013-04-07 15:25:00,
2013-04-07 11:40:00,44.9,22.0,30.16,SW,215,9.0,-999.0,41,-99.99,,,0.00,weatherlink.com 1.10,2013-04-07 15:40:00,
2013-04-07 11:55:00,45.8,23.0,30.15,SSW,207,10.0,-999.0,40,-99.99,,,0.00,weatherlink.com 1.10,2013-04-07 15:55:00,
2013-04-07 12:10:00,47.4,23.0,30.14,South,188,6.0,-999.0,39,-99.99,,,0.00,weatherlink.com 1.10,2013-04-07 16:10:00,
2013-04-07 12:25:00,48.3,24.0,30.13,South,177,9.0,-999.0,38,-99.99,,,0.00,weatherlink.com 1.10,2013-04-07 16:25:00,
2013-04-07 12:40:00,48.3,24.0,30.11,SSW,206,17.0,-999.0,39,-99.99,,,0.00,weatherlink.com 1.10,2013-04-07 16:40:00,
2013-04-07 12:55:00,48.8,25.0,30.10,SSE,154,10.0,-999.0,40,-99.99,,,0.00,weatherlink.com 1.10,2013-04-07 16:55:00,
2013-04-07 13:10:00,48.6,25.0,30.09,SSE,159,12.0,-999.0,40,-99.99,,,0.00,weatherlink.com 1.10,2013-04-07 17:10:00,
2013-04-07 13:25:00,49.6,26.0,30.08,South,172,12.0,-999.0,40,-99.99,,,0.00,weatherlink.com 1.10,2013-04-07 17:25:00,
2013-04-07 13:40:00,50.6,27.0,30.07,South,178,6.0,-999.0,41,-99.99,,,0.00,weatherlink.com 1.10,2013-04-07 17:40:00,
2013-04-07 13:55:00,50.4,27.0,30.06,SE,130,5.0,-999.0,41,-99.99,,,0.00,weatherlink.com 1.10,2013-04-07 17:55:00,
2013-04-07 14:10:00,51.4,27.0,30.05,SW,222,7.0,-999.0,39,-99.99,,,0.00,weatherlink.com 1.10,2013-04-07 18:10:00,
2013-04-07 14:25:00,52.0,28.0,30.04,SE,134,5.0,-999.0,39,-99.99,,,0.00,weatherlink.com 1.10,2013-04-07 18:25:00,
2013-04-07 14:40:00,52.3,27.0,30.03,SSE,168,15.0,-999.0,38,-99.99,,,0.00,weatherlink.com 1.10,2013-04-07 18:40:00,
2013-04-07 14:55:00,53.5,28.0,30.01,West,270,10.0,-999.0,38,-99.99,,,0.00,weatherlink.com 1.10,2013-04-07 18:55:00,
2013-04-07 15:10:00,53.2,28.0,30.01,South,176,11.0,-999.0,38,-99.99,,,0.00,weatherlink.com 1.10,2013-04-07 19:10:00,
2013-04-07 15:25:00,53.6,29.0,30.00,SSW,196,9.0,-999.0,39,-99.99,,,0.00,weatherlink.com 1.10,2013-04-07 19:25:00,
2013-04-07 15:40:00,54.5,30.0,29.99,ESE,111,15.0,-999.0,40,-99.99,,,0.00,weatherlink.com 1.10,2013-04-07 19:40:00,
2013-04-07 15:55:00,54.5,31.0,29.98,SSE,150,10.0,-999.0,41,-99.99,,,0.00,weatherlink.com 1.10,2013-04-07 19:55:00,
2013-04-07 16:10:00,53.7,31.0,29.98,South,184,17.0,-999.0,43,-99.99,,,0.00,weatherlink.com 1.10,2013-04-07 20:10:00,
2013-04-07 16:25:00,53.0,31.0,29.97,SSW,202,7.0,-999.0,44,-99.99,,,0.00,weatherlink.com 1.10,2013-04-07 20:25:00,
2013-04-07 16:40:00,52.7,32.0,29.96,SW,234,1.0,-999.0,46,-99.99,,,0.00,weatherlink.com 1.10,2013-04-07 20:40:00,
2013-04-07 16:55:00,52.3,32.0,29.95,South,171,12.0,-999.0,47,-99.99,,,0.00,weatherlink.com 1.10,2013-04-07 20:55:00,
2013-04-07 17:10:00,51.9,33.0,29.95,SSE,168,14.0,-999.0,49,-99.99,,,0.00,weatherlink.com 1.10,2013-04-07 21:10:00,
2013-04-07 17:25:00,51.5,33.0,29.94,SSW,192,8.0,-999.0,50,-99.99,,,0.00,weatherlink.com 1.10,2013-04-07 21:25:00,
2013-04-07 17:40:00,51.0,34.0,29.95,SSW,204,8.0,-999.0,52,-99.99,,,0.00,weatherlink.com 1.10,2013-04-07 21:40:00,
2013-04-07 17:55:00,51.4,35.0,29.94,SSW,198,13.0,-999.0,53,-99.99,,,0.00,weatherlink.com 1.10,2013-04-07 21:55:00,
2013-04-07 18:10:00,51.0,35.0,29.96,SW,218,17.0,-999.0,54,-99.99,,,0.00,weatherlink.com 1.10,2013-04-07 22:10:00,
2013-04-07 18:25:00,50.3,34.0,29.97,SSW,213,12.0,-999.0,54,-99.99,,,0.00,weatherlink.com 1.10,2013-04-07 22:25:00,
2013-04-07 18:40:00,49.8,34.0,29.97,WSW,238,6.0,-999.0,56,-99.99,,,0.00,weatherlink.com 1.10,2013-04-07 22:40:00,
2013-04-07 18:55:00,49.6,34.0,29.97,South,173,9.0,-999.0,56,-99.99,,,0.00,weatherlink.com 1.10,2013-04-07 22:55:00,
2013-04-07 19:10:00,49.3,35.0,29.97,South,190,13.0,-999.0,58,-99.99,,,0.00,weatherlink.com 1.10,2013-04-07 23:10:00,
2013-04-07 19:25:00,48.6,35.0,29.97,SSW,211,9.0,-999.0,60,-99.99,,,0.00,weatherlink.com 1.10,2013-04-07 23:25:00,
2013-04-07 19:40:00,48.4,35.0,29.97,South,174,16.0,-999.0,60,-99.99,,,0.00,weatherlink.com 1.10,2013-04-07 23:40:00,
2013-04-07 19:55:00,48.0,35.0,29.98,South,187,14.0,-999.0,60,-99.99,,,0.00,weatherlink.com 1.10,2013-04-07 23:55:00,
2013-04-07 20:10:00,47.8,35.0,29.98,SW,229,9.0,-999.0,61,-99.99,,,0.00,weatherlink.com 1.10,2013-04-08 00:10:00,
2013-04-07 20:25:00,47.4,35.0,29.97,SSE,167,9.0,-999.0,63,-99.99,,,0.00,weatherlink.com 1.10,2013-04-08 00:25:00,
2013-04-07 20:40:00,47.2,35.0,29.98,South,171,10.0,-999.0,64,-99.99,,,0.00,weatherlink.com 1.10,2013-04-08 00:40:00,
2013-04-07 20:55:00,46.9,36.0,29.97,South,181,6.0,-999.0,66,-99.99,,,0.00,weatherlink.com 1.10,2013-04-08 00:55:00,
2013-04-07 21:10:00,46.5,36.0,29.98,South,173,11.0,-999.0,68,-99.99,,,0.00,weatherlink.com 1.10,2013-04-08 01:10:00,
2013-04-07 21:25:00,46.2,37.0,29.98,South,180,3.0,-999.0,69,-99.99,,,0.00,weatherlink.com 1.10,2013-04-08 01:25:00,
2013-04-07 21:40:00,46.1,37.0,29.97,SSE,157,5.0,-999.0,71,-99.99,,,0.00,weatherlink.com 1.10,2013-04-08 01:40:00,
2013-04-07 21:55:00,45.9,37.0,29.96,SW,223,4.0,-999.0,72,-99.99,,,0.00,weatherlink.com 1.10,2013-04-08 01:55:00,
2013-04-07 22:10:00,45.7,37.0,29.97,SSE,166,10.0,-999.0,73,-99.99,,,0.00,weatherlink.com 1.10,2013-04-08 02:10:00,
2013-04-07 22:25:00,45.6,38.0,29.96,SW,236,5.0,-999.0,74,-99.99,,,0.00,weatherlink.com 1.10,2013-04-08 02:25:00,
2013-04-07 22:55:00,45.3,38.0,29.95,South,184,5.0,-999.0,75,-99.99,,,0.00,weatherlink.com 1.10,2013-04-08 02:55:00,
2013-04-07 23:10:00,45.0,38.0,29.94,South,184,5.0,-999.0,76,-99.99,,,0.00,weatherlink.com 1.10,2013-04-08 03:10:00,
2013-04-07 23:25:00,45.0,38.0,29.94,SSW,204,5.0,-999.0,77,-99.99,,,0.00,weatherlink.com 1.10,2013-04-08 03:25:00,
2013-04-07 23:40:00,44.9,38.0,29.94,SSW,200,4.0,-999.0,77,-99.99,,,0.00,weatherlink.com 1.10,2013-04-08 03:40:00,
2013-04-07 23:55:00,44.6,38.0,29.94,South,182,4.0,-999.0,78,-99.99,,,0.00,weatherlink.com 1.10,2013-04-08 03:55:00,